Seaspan Swift — CFCV — position and weather

sailwx.info

Track history (hours):
 
Tides and Currents Weather Stations Pressure Air Temp Water Temp Dewpoint Dewpoint Depression Visibility Wind Speed Wind Dir Waves Ship Positions

Seaspan Swift

Last reported at 2017-Oct-22 12:56 UTC. Time now 2017-Oct-22 13:44 UTC.
Position N 49°09' W 123°02'.

Length 150 m; draft 4.2 m.

Type: Cargo ship. MMSI: 316033419.

Date/timePositionNaut miles runAvg speedWind from/ knotsBaromVisibWave heightAir tempDewpointWater temp
2017-Oct-22 12:56N 49°09' W 123°02'0 0.0
2017-Oct-22 12:30N 49°09' W 123°02'0 0.0
2017-Oct-22 12:01N 49°09' W 123°02'0 0.0
2017-Oct-22 11:31N 49°09' W 123°02'0 0.0
2017-Oct-22 11:00N 49°09' W 123°02'0 0.0
2017-Oct-22 10:30N 49°09' W 123°02'0 0.0
2017-Oct-22 10:01N 49°09' W 123°02'0 0.0
2017-Oct-22 09:31N 49°09' W 123°02'0 0.0
2017-Oct-22 09:01N 49°09' W 123°02'0 0.0
2017-Oct-22 08:31N 49°09' W 123°02'0 0.0
2017-Oct-22 08:00N 49°09' W 123°02'0 0.0
2017-Oct-22 07:31N 49°09' W 123°02'0 0.0
2017-Oct-22 07:01N 49°09' W 123°02'0 0.0
2017-Oct-22 06:31N 49°09' W 123°02'0 0.0
2017-Oct-22 05:59N 49°09' W 123°02'0 0.0
2017-Oct-22 05:30N 49°09' W 123°02'0 0.0
2017-Oct-22 05:01N 49°09' W 123°02'0 0.0
2017-Oct-22 04:30N 49°09' W 123°02'0 0.0
2017-Oct-22 04:00N 49°09' W 123°02'0 0.0
2017-Oct-22 03:30N 49°09' W 123°02'0 0.0
2017-Oct-22 03:01N 49°09' W 123°02'0 0.0
2017-Oct-22 02:30N 49°09' W 123°02'0 0.0
2017-Oct-22 02:01N 49°09' W 123°02'0 0.0
2017-Oct-22 01:31N 49°09' W 123°02'0 0.0
2017-Oct-22 01:01N 49°09' W 123°02'0 0.0
2017-Oct-22 00:31N 49°09' W 123°02'0 0.0
2017-Oct-22 00:01N 49°09' W 123°02'0 0.0
2017-Oct-21 23:30N 49°09' W 123°02'0 0.0
2017-Oct-21 23:01N 49°09' W 123°02'0 0.0
2017-Oct-21 22:31N 49°09' W 123°02'0 0.0
2017-Oct-21 22:01N 49°09' W 123°02'0 0.0
2017-Oct-21 21:31N 49°09' W 123°02'0 0.0
2017-Oct-21 21:01N 49°09' W 123°02'0 0.0
2017-Oct-21 20:30N 49°09' W 123°02'3 5.9
2017-Oct-21 20:01N 49°07' W 123°06'611.8
2017-Oct-21 19:30N 49°08' W 123°15'612.6
2017-Oct-21 19:00N 49°07' W 123°24'714.4
2017-Oct-21 18:30N 49°10' W 123°35'714.7
2017-Oct-21 18:00N 49°12' W 123°45'510.9
2017-Oct-21 17:30N 49°10' W 123°53'1 2.2
2017-Oct-21 17:00N 49°09' W 123°52'0 0.0
2017-Oct-21 16:30N 49°09' W 123°52'0 0.0
2017-Oct-21 16:01N 49°09' W 123°52'0 0.0
2017-Oct-21 15:30N 49°09' W 123°52'0 0.0
2017-Oct-21 15:00N 49°09' W 123°52'0 0.0
2017-Oct-21 14:31N 49°09' W 123°52'0 0.0
2017-Oct-21 13:31N 49°09' W 123°52'0 0.0
2017-Oct-21 13:01N 49°09' W 123°52'0 0.0
2017-Oct-21 12:28N 49°09' W 123°52'0 0.0
2017-Oct-21 12:00N 49°09' W 123°52'0 0.0
2017-Oct-21 11:30N 49°09' W 123°52'0 0.0
2017-Oct-21 11:01N 49°09' W 123°52'1 2.0
2017-Oct-21 10:31N 49°10' W 123°53'611.4
2017-Oct-21 10:00N 49°14' W 123°46'816.6
2017-Oct-21 09:30N 49°12' W 123°34'816.3
2017-Oct-21 09:01N 49°08' W 123°23'714.5
2017-Oct-21 08:31N 49°07' W 123°12'713.1
2017-Oct-21 08:00N 49°09' W 123°02'0 0.2
2017-Oct-21 07:30N 49°09' W 123°02'0 0.0
2017-Oct-21 07:00N 49°09' W 123°02'0 0.0
2017-Oct-21 06:30N 49°09' W 123°02'1 1.1
2017-Oct-21 06:00N 49°08' W 123°03'510.3
2017-Oct-21 05:30N 49°07' W 123°11'511.0
2017-Oct-21 05:00N 49°06' W 123°19'714.6
2017-Oct-21 04:31N 48°59' W 123°17'714.7
2017-Oct-21 04:00N 48°51' W 123°19'611.7
2017-Oct-21 03:30N 48°46' W 123°21'5 2.0
2017-Oct-21 01:00N 48°41' W 123°24'511.3
2017-Oct-21 00:30N 48°46' W 123°21'612.8
2017-Oct-21 00:00N 48°52' W 123°18'815.5
2017-Oct-20 23:30N 49°00' W 123°19'713.5
2017-Oct-20 23:01N 49°07' W 123°17'714.6
2017-Oct-20 22:30N 49°07' W 123°06'3 5.5
2017-Oct-20 22:00N 49°09' W 123°02'0 0.0
2017-Oct-20 21:30N 49°09' W 123°02'0 0.0
2017-Oct-20 21:00N 49°09' W 123°02'0 0.0
2017-Oct-20 20:30N 49°09' W 123°02'2 4.4
2017-Oct-20 20:00N 49°07' W 123°05'611.7
2017-Oct-20 19:30N 49°08' W 123°14'612.7
2017-Oct-20 19:00N 49°07' W 123°23'816.1
2017-Oct-20 18:30N 49°10' W 123°35'816.3
2017-Oct-20 18:00N 49°12' W 123°46'510.1
2017-Oct-20 17:30N 49°09' W 123°52'1 1.1
2017-Oct-20 16:59N 49°09' W 123°52'0 0.0
2017-Oct-20 16:30N 49°09' W 123°52'0 0.0
2017-Oct-20 16:00N 49°09' W 123°52'0 0.0
2017-Oct-20 15:30N 49°09' W 123°52'0 0.0
2017-Oct-20 15:00N 49°09' W 123°52'0 0.0
2017-Oct-20 14:00N 49°09' W 123°52'0 0.0
2017-Oct-20 13:30N 49°09' W 123°52'0 0.0
2017-Oct-20 13:00N 49°09' W 123°52'0 0.0
2017-Oct-20 12:30N 49°09' W 123°52'0 0.0
2017-Oct-20 12:00N 49°09' W 123°52'0 0.0
2017-Oct-20 11:30N 49°09' W 123°52'0 0.0
2017-Oct-20 11:00N 49°09' W 123°52'1 2.1
2017-Oct-20 10:30N 49°10' W 123°53'611.8
2017-Oct-20 10:00N 49°13' W 123°45'816.5
2017-Oct-20 09:30N 49°12' W 123°33'816.4
2017-Oct-20 09:00N 49°07' W 123°23'713.9
2017-Oct-20 08:30N 49°07' W 123°12'612.9
2017-Oct-20 08:00N 49°09' W 123°02'0 0.3
2017-Oct-20 07:30N 49°09' W 123°02'0 0.0
2017-Oct-20 07:00N 49°09' W 123°02'0 0.0
2017-Oct-20 06:30N 49°09' W 123°02'1 2.4
2017-Oct-20 06:00N 49°08' W 123°04'510.7
2017-Oct-20 05:30N 49°07' W 123°12'510.7
2017-Oct-20 05:00N 49°05' W 123°19'815.4
2017-Oct-20 04:30N 48°58' W 123°18'612.4
2017-Oct-20 04:00N 48°52' W 123°21'714.2
2017-Oct-20 03:30N 48°45' W 123°21'4 1.6
2017-Oct-20 00:54N 48°41' W 123°24'411.2
2017-Oct-20 00:30N 48°45' W 123°21'713.3
2017-Oct-20 00:00N 48°52' W 123°19'713.6
2017-Oct-19 23:30N 48°58' W 123°18'815.1
2017-Oct-19 23:00N 49°06' W 123°19'714.5
2017-Oct-19 22:30N 49°06' W 123°08'4 8.5
2017-Oct-19 22:00N 49°09' W 123°02'0 0.0
2017-Oct-19 21:30N 49°09' W 123°02'0 0.0
2017-Oct-19 21:00N 49°09' W 123°02'0 0.0
2017-Oct-19 20:30N 49°09' W 123°02'2 4.5
2017-Oct-19 20:00N 49°07' W 123°05'611.9
2017-Oct-19 19:30N 49°08' W 123°14'612.2
2017-Oct-19 19:01N 49°07' W 123°23'815.9
2017-Oct-19 18:30N 49°10' W 123°35'815.8
2017-Oct-19 18:01N 49°12' W 123°46'510.4
2017-Oct-19 17:30N 49°09' W 123°52'0 1.0
2017-Oct-19 17:01N 49°09' W 123°52'0 0.0
2017-Oct-19 16:30N 49°09' W 123°52'0 0.0
2017-Oct-19 15:59N 49°09' W 123°52'0 0.0
2017-Oct-19 15:31N 49°09' W 123°52'0 0.0
2017-Oct-19 15:01N 49°09' W 123°52'0 0.0
2017-Oct-19 14:31N 49°09' W 123°52'0 0.0
2017-Oct-19 14:01N 49°09' W 123°52'0 0.0
2017-Oct-19 13:30N 49°09' W 123°52'0 0.0
2017-Oct-19 13:01N 49°09' W 123°52'0 0.0
2017-Oct-19 12:30N 49°09' W 123°52'0 0.0
2017-Oct-19 12:01N 49°09' W 123°52'0 0.0
2017-Oct-19 11:28N 49°09' W 123°52'0 0.0
2017-Oct-19 11:00N 49°09' W 123°52'3 6.5
2017-Oct-19 10:30N 49°12' W 123°53'815.3
2017-Oct-19 10:00N 49°14' W 123°42'815.9
2017-Oct-19 09:30N 49°10' W 123°32'817.1
2017-Oct-19 09:00N 49°06' W 123°20'714.4
2017-Oct-19 08:30N 49°07' W 123°09'5 9.9
2017-Oct-19 08:00N 49°09' W 123°02'0 0.0
2017-Oct-19 07:30N 49°09' W 123°02'0 0.0
2017-Oct-19 07:00N 49°09' W 123°02'0 0.0
2017-Oct-19 06:30N 49°09' W 123°02'0 0.8
2017-Oct-19 06:00N 49°08' W 123°03'510.5
2017-Oct-19 05:30N 49°07' W 123°10'510.6
2017-Oct-19 05:00N 49°06' W 123°18'713.5
2017-Oct-19 04:30N 48°59' W 123°18'815.1
2017-Oct-19 04:01N 48°52' W 123°18'611.5
2017-Oct-19 03:31N 48°46' W 123°20'5 2.1
2017-Oct-19 00:58N 48°41' W 123°24'510.9
2017-Oct-19 00:30N 48°46' W 123°21'713.5
2017-Oct-19 00:00N 48°52' W 123°18'713.5
2017-Oct-18 23:30N 48°59' W 123°19'714.0
2017-Oct-18 23:00N 49°06' W 123°18'713.5
2017-Oct-18 22:30N 49°06' W 123°08'4 8.5
2017-Oct-18 22:00N 49°09' W 123°02'0 0.0
2017-Oct-18 21:30N 49°09' W 123°02'0 0.0
2017-Oct-18 21:01N 49°09' W 123°02'0 0.0
2017-Oct-18 20:31N 49°09' W 123°02'4 8.4
2017-Oct-18 20:00N 49°06' W 123°08'5 9.8
2017-Oct-18 19:30N 49°08' W 123°15'612.1
2017-Oct-18 19:01N 49°08' W 123°24'814.5
2017-Oct-18 18:29N 49°10' W 123°35'714.7
2017-Oct-18 18:00N 49°12' W 123°45'510.5
2017-Oct-18 17:30N 49°10' W 123°53'1 2.1
2017-Oct-18 17:00N 49°09' W 123°52'0 0.0
2017-Oct-18 16:30N 49°09' W 123°52'0 0.0
2017-Oct-18 16:00N 49°09' W 123°52'0 0.0
2017-Oct-18 15:30N 49°09' W 123°52'3 6.1
2017-Oct-18 15:00N 49°12' W 123°54'1 0.7
2017-Oct-18 14:00N 49°11' W 123°53'0 0.4
2017-Oct-18 13:30N 49°11' W 123°54'2 3.8
2017-Oct-18 13:00N 49°13' W 123°54'3 7.0
2017-Oct-18 12:30N 49°10' W 123°53'1 1.8
2017-Oct-18 12:00N 49°09' W 123°52'0 0.0
2017-Oct-18 11:27N 49°09' W 123°52'0 0.7
2017-Oct-18 10:59N 49°09' W 123°52'4 9.0
2017-Oct-18 10:30N 49°13' W 123°50'815.9
2017-Oct-18 10:00N 49°11' W 123°38'816.2
2017-Oct-18 09:30N 49°08' W 123°27'714.0
2017-Oct-18 09:00N 49°07' W 123°16'510.6
2017-Oct-18 08:30N 49°07' W 123°08'5 9.1
2017-Oct-18 08:00N 49°09' W 123°02'0 0.0
2017-Oct-18 07:30N 49°09' W 123°02'0 0.0
2017-Oct-18 07:00N 49°09' W 123°02'0 0.0
2017-Oct-18 06:30N 49°09' W 123°02'1 2.6
2017-Oct-18 06:00N 49°08' W 123°04'510.3
2017-Oct-18 05:29N 49°07' W 123°12'510.7
2017-Oct-18 05:01N 49°06' W 123°19'815.3
2017-Oct-18 04:30N 48°58' W 123°18'713.1
2017-Oct-18 04:00N 48°52' W 123°20'612.1
2017-Oct-18 03:30N 48°46' W 123°21'5 1.8
2017-Oct-18 00:52N 48°41' W 123°24'512.6
2017-Oct-18 00:30N 48°46' W 123°21'713.5
2017-Oct-18 00:00N 48°52' W 123°19'816.3
2017-Oct-17 23:30N 49°00' W 123°19'713.7
2017-Oct-17 23:00N 49°07' W 123°16'612.3
2017-Oct-17 22:30N 49°07' W 123°07'4 7.3
2017-Oct-17 21:59N 49°09' W 123°02'0 0.0
2017-Oct-17 21:30N 49°09' W 123°02'0 0.0
2017-Oct-17 21:00N 49°09' W 123°02'0 0.0
2017-Oct-17 20:30N 49°09' W 123°02'0 0.2
2017-Oct-17 20:00N 49°09' W 123°02'611.4
2017-Oct-17 19:30N 49°07' W 123°11'612.2
2017-Oct-17 19:00N 49°06' W 123°20'816.6
2017-Oct-17 18:30N 49°09' W 123°32'816.7
2017-Oct-17 18:00N 49°12' W 123°44'612.0
2017-Oct-17 17:30N 49°10' W 123°53'1 2.9
2017-Oct-17 17:00N 49°09' W 123°52'0 0.0
2017-Oct-17 16:30N 49°09' W 123°52'0 0.0
2017-Oct-17 16:00N 49°09' W 123°52'0 0.0
2017-Oct-17 15:30N 49°09' W 123°52'0 0.0
2017-Oct-17 15:00N 49°09' W 123°52'0 0.0
2017-Oct-17 14:30N 49°09' W 123°52'0 0.0
2017-Oct-17 14:00N 49°09' W 123°52'0 0.0
2017-Oct-17 13:30N 49°09' W 123°52'0 0.0
2017-Oct-17 13:00N 49°09' W 123°52'0 0.0
2017-Oct-17 12:30N 49°09' W 123°52'0 0.0
2017-Oct-17 12:00N 49°09' W 123°52'0 0.0
2017-Oct-17 11:30N 49°09' W 123°52'0 0.0
2017-Oct-17 11:00N 49°09' W 123°52'2 3.6
2017-Oct-17 10:30N 49°10' W 123°53'713.4
2017-Oct-17 10:00N 49°14' W 123°44'816.3
2017-Oct-17 09:30N 49°11' W 123°33'816.9
2017-Oct-17 09:00N 49°07' W 123°21'713.8
2017-Oct-17 08:30N 49°07' W 123°11'611.6
2017-Oct-17 08:00N 49°09' W 123°02'0 0.0
2017-Oct-17 07:30N 49°09' W 123°02'0 0.0
2017-Oct-17 07:00N 49°09' W 123°02'0 0.0
2017-Oct-17 06:30N 49°09' W 123°02'1 2.1
2017-Oct-17 06:00N 49°08' W 123°03'510.8
2017-Oct-17 05:30N 49°07' W 123°12'510.9
2017-Oct-17 05:01N 49°05' W 123°19'815.3
2017-Oct-17 04:30N 48°58' W 123°17'713.4
2017-Oct-17 04:01N 48°52' W 123°20'510.9
2017-Oct-17 03:31N 48°46' W 123°21'5 2.0
2017-Oct-17 00:49N 48°41' W 123°24'411.0
2017-Oct-17 00:30N 48°44' W 123°21'815.2
2017-Oct-16 23:59N 48°52' W 123°20'714.3
2017-Oct-16 23:30N 48°59' W 123°19'815.1
2017-Oct-16 23:00N 49°06' W 123°19'713.4
2017-Oct-16 22:30N 49°07' W 123°08'5 6.9
2017-Oct-16 21:51N 49°09' W 123°02'0 0.0
2017-Oct-16 21:27N 49°09' W 123°02'0 0.0
2017-Oct-16 20:57N 49°09' W 123°02'0 0.0
2017-Oct-16 20:30N 49°09' W 123°02'3 5.7
2017-Oct-16 20:00N 49°07' W 123°06'713.8
2017-Oct-16 19:30N 49°07' W 123°16'713.2
2017-Oct-16 18:59N 49°08' W 123°26'815.6
2017-Oct-16 18:30N 49°10' W 123°37'715.3
2017-Oct-16 18:01N 49°13' W 123°48'5 4.2
2017-Oct-16 16:45N 49°09' W 123°52'0 0.0
2017-Oct-16 16:30N 49°09' W 123°52'0 0.0
2017-Oct-16 15:57N 49°09' W 123°52'0 0.0
2017-Oct-16 15:21N 49°09' W 123°52'0 0.0
2017-Oct-16 15:00N 49°09' W 123°52'0 0.0
2017-Oct-16 14:27N 49°09' W 123°52'0 0.0
2017-Oct-16 13:24N 49°09' W 123°52'0 0.0
2017-Oct-16 12:57N 49°09' W 123°52'0 0.0
2017-Oct-16 12:27N 49°09' W 123°52'0 0.0
2017-Oct-16 09:51N 49°09' W 123°52'0 0.0
2017-Oct-16 08:33N 49°09' W 123°52'0 1.4
2017-Oct-16 08:31N 49°09' W 123°52'4 8.9
2017-Oct-16 08:00N 49°13' W 123°50'713.8
2017-Oct-16 07:30N 49°12' W 123°40'713.9
2017-Oct-16 07:00N 49°10' W 123°30'714.1
2017-Oct-16 06:30N 49°06' W 123°20'713.3
2017-Oct-16 06:00N 49°07' W 123°10'510.4
2017-Oct-16 05:30N 49°09' W 123°03'0 0.6
2017-Oct-16 05:00N 49°09' W 123°02'0 0.0
2017-Oct-16 04:30N 49°09' W 123°02'0 0.0
2017-Oct-16 03:57N 49°09' W 123°02'0 0.0
2017-Oct-16 03:30N 49°09' W 123°02'0 0.0
2017-Oct-16 03:00N 49°09' W 123°02'0 0.0
2017-Oct-16 02:27N 49°09' W 123°02'0 0.0
2017-Oct-16 01:57N 49°09' W 123°02'0 0.0
2017-Oct-16 01:30N 49°09' W 123°02'0 0.0
2017-Oct-16 00:57N 49°09' W 123°02'0 0.0
2017-Oct-16 00:30N 49°09' W 123°02'0 0.0
2017-Oct-15 23:54N 49°09' W 123°02'0 0.0
2017-Oct-15 23:30N 49°09' W 123°02'0 0.0
2017-Oct-15 23:00N 49°09' W 123°02'0 0.0
2017-Oct-15 22:30N 49°09' W 123°02'0 0.0
2017-Oct-15 21:57N 49°09' W 123°02'0 0.0
2017-Oct-15 21:30N 49°09' W 123°02'0 0.0
2017-Oct-15 20:57N 49°09' W 123°02'0 0.0
2017-Oct-15 20:21N 49°09' W 123°02'0 0.0
2017-Oct-15 20:00N 49°09' W 123°02'0 0.0
2017-Oct-15 19:09N 49°09' W 123°02'0 0.0
2017-Oct-15 18:39N 49°09' W 123°02'0 0.0
2017-Oct-15 18:30N 49°09' W 123°02'0 0.0
2017-Oct-15 17:57N 49°09' W 123°02'0 0.0
2017-Oct-15 17:27N 49°09' W 123°02'0 0.0
2017-Oct-15 17:00N 49°09' W 123°02'0 0.0
2017-Oct-15 16:30N 49°09' W 123°02'0 0.0
2017-Oct-15 15:57N 49°09' W 123°02'0 0.0
2017-Oct-15 15:30N 49°09' W 123°02'0 0.0
2017-Oct-15 15:00N 49°09' W 123°02'0 0.0
2017-Oct-15 14:00N 49°09' W 123°02'0 0.0
2017-Oct-15 13:30N 49°09' W 123°02'0 0.0
2017-Oct-15 13:00N 49°09' W 123°02'0 0.0
2017-Oct-15 12:30N 49°09' W 123°02'0 0.0
2017-Oct-15 11:57N 49°09' W 123°02'0 0.0
2017-Oct-15 11:27N 49°09' W 123°02'0 0.0
2017-Oct-15 10:57N 49°09' W 123°02'0 0.0
2017-Oct-15 10:27N 49°09' W 123°02'0 0.0
2017-Oct-15 10:00N 49°09' W 123°02'0 0.0
2017-Oct-15 09:27N 49°09' W 123°02'0 0.0
2017-Oct-15 08:57N 49°09' W 123°02'0 0.0
2017-Oct-15 08:30N 49°09' W 123°02'0 0.0
2017-Oct-15 07:57N 49°09' W 123°02'0 0.0
2017-Oct-15 07:30N 49°09' W 123°02'0 0.0
2017-Oct-15 06:51N 49°09' W 123°02'0 0.0
2017-Oct-15 06:27N 49°09' W 123°02'0 0.0
2017-Oct-15 06:00N 49°09' W 123°02'0 0.0
2017-Oct-15 05:27N 49°09' W 123°02'0 0.0
2017-Oct-15 05:00N 49°09' W 123°02'0 0.0
2017-Oct-15 04:30N 49°09' W 123°02'0 0.0
2017-Oct-15 04:00N 49°09' W 123°02'0 0.0
2017-Oct-15 03:30N 49°09' W 123°02'0 0.0
2017-Oct-15 03:00N 49°09' W 123°02'0 0.0
2017-Oct-15 02:30N 49°09' W 123°02'0 0.0
2017-Oct-15 01:57N 49°09' W 123°02'0 0.0
2017-Oct-15 01:30N 49°09' W 123°02'0 0.0
2017-Oct-15 01:00N 49°09' W 123°02'0 0.0
2017-Oct-15 00:27N 49°09' W 123°02'0 0.0
2017-Oct-14 23:57N 49°09' W 123°02'0 0.0
2017-Oct-14 23:30N 49°09' W 123°02'0 0.0
2017-Oct-14 23:00N 49°09' W 123°02'0 0.0
2017-Oct-14 22:30N 49°09' W 123°02'0 0.0
2017-Oct-14 22:00N 49°09' W 123°02'0 0.0
2017-Oct-14 21:30N 49°09' W 123°02'0 0.0
2017-Oct-14 20:45N 49°09' W 123°02'0 0.0
2017-Oct-14 20:30N 49°09' W 123°02'2 3.4
2017-Oct-14 20:00N 49°08' W 123°04'713.5
2017-Oct-14 19:30N 49°08' W 123°15'714.0
2017-Oct-14 19:00N 49°08' W 123°25'815.9
2017-Oct-14 18:30N 49°11' W 123°37'815.9
2017-Oct-14 18:00N 49°13' W 123°48'5 9.5
2017-Oct-14 17:28N 49°09' W 123°52'0 0.5
2017-Oct-14 17:00N 49°09' W 123°52'0 0.0
2017-Oct-14 16:30N 49°09' W 123°52'0 0.0
2017-Oct-14 16:00N 49°09' W 123°52'0 0.0
2017-Oct-14 15:30N 49°09' W 123°52'0 0.0
2017-Oct-14 15:00N 49°09' W 123°52'0 0.0
2017-Oct-14 14:30N 49°09' W 123°52'0 0.0
2017-Oct-14 14:00N 49°09' W 123°52'0 0.0
2017-Oct-14 13:30N 49°09' W 123°52'0 0.0
2017-Oct-14 13:00N 49°09' W 123°52'0 0.0
2017-Oct-14 12:30N 49°09' W 123°52'0 0.0
2017-Oct-14 12:00N 49°09' W 123°52'0 0.0
2017-Oct-14 11:30N 49°09' W 123°52'0 0.0
2017-Oct-14 11:00N 49°09' W 123°52'3 5.3
2017-Oct-14 10:30N 49°11' W 123°53'612.5
2017-Oct-14 10:00N 49°12' W 123°44'815.9
2017-Oct-14 09:29N 49°10' W 123°32'816.3
2017-Oct-14 09:01N 49°07' W 123°21'713.7
2017-Oct-14 08:30N 49°07' W 123°10'611.2
2017-Oct-14 08:00N 49°09' W 123°02'0 0.0
2017-Oct-14 07:27N 49°09' W 123°02'0 0.0
2017-Oct-14 07:00N 49°09' W 123°02'0 0.0
2017-Oct-14 06:27N 49°09' W 123°02'1 1.4
2017-Oct-14 06:00N 49°08' W 123°03'4 7.3
2017-Oct-14 05:30N 49°06' W 123°08'611.9
2017-Oct-14 05:00N 49°07' W 123°17'612.5
2017-Oct-14 04:31N 49°01' W 123°18'816.0
2017-Oct-14 04:01N 48°53' W 123°18'612.0
2017-Oct-14 03:30N 48°47' W 123°20'611.9
2017-Oct-14 03:00N 48°41' W 123°24'0 0.2
2017-Oct-14 02:23N 48°41' W 123°24'0 0.0
2017-Oct-14 02:00N 48°41' W 123°24'1 1.1
2017-Oct-14 00:41N 48°42' W 123°22'316.0
2017-Oct-14 00:30N 48°44' W 123°21'714.7
2017-Oct-14 00:00N 48°52' W 123°19'1015.7
2017-Oct-13 23:22N 49°02' W 123°19'514.6
2017-Oct-13 23:00N 49°07' W 123°17'713.8
2017-Oct-13 22:30N 49°07' W 123°07'3 5.4
2017-Oct-13 21:52N 49°09' W 123°02'0 0.0
2017-Oct-13 21:28N 49°09' W 123°02'0 0.0
2017-Oct-13 20:58N 49°09' W 123°02'0 0.0
2017-Oct-13 20:28N 49°09' W 123°02'0 0.0
2017-Oct-13 19:59N 49°09' W 123°02'510.3
2017-Oct-13 19:30N 49°06' W 123°09'714.4
2017-Oct-13 19:00N 49°06' W 123°20'815.7
2017-Oct-13 18:29N 49°09' W 123°31'816.3
2017-Oct-13 18:00N 49°12' W 123°43'713.7
2017-Oct-13 17:30N 49°11' W 123°53'3 5.3
2017-Oct-13 17:00N 49°09' W 123°52'0 0.0
2017-Oct-13 16:30N 49°09' W 123°52'0 0.0
2017-Oct-13 16:00N 49°09' W 123°52'0 0.0
2017-Oct-13 15:30N 49°09' W 123°52'0 0.0
2017-Oct-13 15:00N 49°09' W 123°52'0 0.0
2017-Oct-13 14:30N 49°09' W 123°52'0 0.0
2017-Oct-13 14:00N 49°09' W 123°52'0 0.0
2017-Oct-13 13:30N 49°09' W 123°52'0 0.0
2017-Oct-13 13:00N 49°09' W 123°52'0 0.0
2017-Oct-13 12:30N 49°09' W 123°52'0 0.0
2017-Oct-13 12:00N 49°09' W 123°52'0 0.0
2017-Oct-13 11:31N 49°09' W 123°52'1 1.2
2017-Oct-13 11:00N 49°09' W 123°52'510.8
2017-Oct-13 10:31N 49°13' W 123°46'815.3
2017-Oct-13 10:00N 49°10' W 123°35'714.9
2017-Oct-13 09:31N 49°08' W 123°25'713.7
2017-Oct-13 09:00N 49°08' W 123°14'713.7
2017-Oct-13 08:30N 49°08' W 123°04'1 2.3
2017-Oct-13 08:00N 49°09' W 123°02'0 0.0
2017-Oct-13 07:30N 49°09' W 123°02'0 0.0
2017-Oct-13 07:00N 49°09' W 123°02'0 0.0
2017-Oct-13 06:30N 49°09' W 123°02'1 1.0
2017-Oct-13 06:00N 49°08' W 123°03'5 9.6
2017-Oct-13 05:30N 49°07' W 123°10'612.7
2017-Oct-13 05:00N 49°06' W 123°19'714.4
2017-Oct-13 04:30N 48°59' W 123°18'714.1
2017-Oct-13 04:00N 48°52' W 123°20'613.0
2017-Oct-13 03:30N 48°45' W 123°21'5 1.7
2017-Oct-13 00:49N 48°41' W 123°24'3 9.4
2017-Oct-13 00:30N 48°43' W 123°21'816.5
2017-Oct-13 00:00N 48°51' W 123°21'713.8
2017-Oct-12 23:30N 48°58' W 123°18'816.0
2017-Oct-12 23:00N 49°06' W 123°19'714.1
2017-Oct-12 22:30N 49°06' W 123°08'4 8.5
2017-Oct-12 22:00N 49°09' W 123°02'0 0.0
2017-Oct-12 21:25N 49°09' W 123°02'0 0.0
2017-Oct-12 20:58N 49°09' W 123°02'0 0.0
2017-Oct-12 20:28N 49°09' W 123°02'0 0.0
2017-Oct-12 19:59N 49°09' W 123°02'5 9.9
2017-Oct-12 19:30N 49°06' W 123°09'713.9
2017-Oct-12 19:00N 49°06' W 123°19'815.4
2017-Oct-12 18:29N 49°09' W 123°30'816.1
2017-Oct-12 18:00N 49°11' W 123°42'714.7
2017-Oct-12 17:30N 49°12' W 123°53'3 6.4
2017-Oct-12 17:00N 49°09' W 123°52'0 0.0
2017-Oct-12 16:30N 49°09' W 123°52'0 0.0
2017-Oct-12 16:00N 49°09' W 123°52'0 0.0
2017-Oct-12 15:30N 49°09' W 123°52'0 0.0
2017-Oct-12 14:57N 49°09' W 123°52'0 0.0
2017-Oct-12 14:30N 49°09' W 123°52'0 0.0
2017-Oct-12 14:00N 49°09' W 123°52'0 0.0
2017-Oct-12 13:30N 49°09' W 123°52'  
Track history (hours):
 
Tides and Currents Weather Stations Pressure Air Temp Water Temp Dewpoint Dewpoint Depression Visibility Wind Speed Wind Dir Waves Ship Positions

Seaspan Swift

Last reported at 2017-Oct-22 12:56 UTC. Time now 2017-Oct-22 13:44 UTC.
Position N 49°09' W 123°02'.

Length 150 m; draft 4.2 m.

Type: Cargo ship. MMSI: 316033419.

Date/timePositionNaut miles runAvg speedWind from/ knotsBaromVisibWave heightAir tempDewpointWater temp
2017-Oct-22 12:56N 49°09' W 123°02'0 0.0
2017-Oct-22 12:30N 49°09' W 123°02'0 0.0
2017-Oct-22 12:01N 49°09' W 123°02'0 0.0
2017-Oct-22 11:31N 49°09' W 123°02'0 0.0
2017-Oct-22 11:00N 49°09' W 123°02'0 0.0
2017-Oct-22 10:30N 49°09' W 123°02'0 0.0
2017-Oct-22 10:01N 49°09' W 123°02'0 0.0
2017-Oct-22 09:31N 49°09' W 123°02'0 0.0
2017-Oct-22 09:01N 49°09' W 123°02'0 0.0
2017-Oct-22 08:31N 49°09' W 123°02'0 0.0
2017-Oct-22 08:00N 49°09' W 123°02'0 0.0
2017-Oct-22 07:31N 49°09' W 123°02'0 0.0
2017-Oct-22 07:01N 49°09' W 123°02'0 0.0
2017-Oct-22 06:31N 49°09' W 123°02'0 0.0
2017-Oct-22 05:59N 49°09' W 123°02'0 0.0
2017-Oct-22 05:30N 49°09' W 123°02'0 0.0
2017-Oct-22 05:01N 49°09' W 123°02'0 0.0
2017-Oct-22 04:30N 49°09' W 123°02'0 0.0
2017-Oct-22 04:00N 49°09' W 123°02'0 0.0
2017-Oct-22 03:30N 49°09' W 123°02'0 0.0
2017-Oct-22 03:01N 49°09' W 123°02'0 0.0
2017-Oct-22 02:30N 49°09' W 123°02'0 0.0
2017-Oct-22 02:01N 49°09' W 123°02'0 0.0
2017-Oct-22 01:31N 49°09' W 123°02'0 0.0
2017-Oct-22 01:01N 49°09' W 123°02'0 0.0
2017-Oct-22 00:31N 49°09' W 123°02'0 0.0
2017-Oct-22 00:01N 49°09' W 123°02'0 0.0
2017-Oct-21 23:30N 49°09' W 123°02'0 0.0
2017-Oct-21 23:01N 49°09' W 123°02'0 0.0
2017-Oct-21 22:31N 49°09' W 123°02'0 0.0
2017-Oct-21 22:01N 49°09' W 123°02'0 0.0
2017-Oct-21 21:31N 49°09' W 123°02'0 0.0
2017-Oct-21 21:01N 49°09' W 123°02'0 0.0
2017-Oct-21 20:30N 49°09' W 123°02'3 5.9
2017-Oct-21 20:01N 49°07' W 123°06'611.8
2017-Oct-21 19:30N 49°08' W 123°15'612.6
2017-Oct-21 19:00N 49°07' W 123°24'714.4
2017-Oct-21 18:30N 49°10' W 123°35'714.7
2017-Oct-21 18:00N 49°12' W 123°45'510.9
2017-Oct-21 17:30N 49°10' W 123°53'1 2.2
2017-Oct-21 17:00N 49°09' W 123°52'0 0.0
2017-Oct-21 16:30N 49°09' W 123°52'0 0.0
2017-Oct-21 16:01N 49°09' W 123°52'0 0.0
2017-Oct-21 15:30N 49°09' W 123°52'0 0.0
2017-Oct-21 15:00N 49°09' W 123°52'0 0.0
2017-Oct-21 14:31N 49°09' W 123°52'0 0.0
2017-Oct-21 13:31N 49°09' W 123°52'0 0.0
2017-Oct-21 13:01N 49°09' W 123°52'0 0.0
2017-Oct-21 12:28N 49°09' W 123°52'0 0.0
2017-Oct-21 12:00N 49°09' W 123°52'0 0.0
2017-Oct-21 11:30N 49°09' W 123°52'0 0.0
2017-Oct-21 11:01N 49°09' W 123°52'1 2.0
2017-Oct-21 10:31N 49°10' W 123°53'611.4
2017-Oct-21 10:00N 49°14' W 123°46'816.6
2017-Oct-21 09:30N 49°12' W 123°34'816.3
2017-Oct-21 09:01N 49°08' W 123°23'714.5
2017-Oct-21 08:31N 49°07' W 123°12'713.1
2017-Oct-21 08:00N 49°09' W 123°02'0 0.2
2017-Oct-21 07:30N 49°09' W 123°02'0 0.0
2017-Oct-21 07:00N 49°09' W 123°02'0 0.0
2017-Oct-21 06:30N 49°09' W 123°02'1 1.1
2017-Oct-21 06:00N 49°08' W 123°03'510.3
2017-Oct-21 05:30N 49°07' W 123°11'511.0
2017-Oct-21 05:00N 49°06' W 123°19'714.6
2017-Oct-21 04:31N 48°59' W 123°17'714.7
2017-Oct-21 04:00N 48°51' W 123°19'611.7
2017-Oct-21 03:30N 48°46' W 123°21'5 2.0
2017-Oct-21 01:00N 48°41' W 123°24'511.3
2017-Oct-21 00:30N 48°46' W 123°21'612.8
2017-Oct-21 00:00N 48°52' W 123°18'815.5
2017-Oct-20 23:30N 49°00' W 123°19'713.5
2017-Oct-20 23:01N 49°07' W 123°17'714.6
2017-Oct-20 22:30N 49°07' W 123°06'3 5.5
2017-Oct-20 22:00N 49°09' W 123°02'0 0.0
2017-Oct-20 21:30N 49°09' W 123°02'0 0.0
2017-Oct-20 21:00N 49°09' W 123°02'0 0.0
2017-Oct-20 20:30N 49°09' W 123°02'2 4.4
2017-Oct-20 20:00N 49°07' W 123°05'611.7
2017-Oct-20 19:30N 49°08' W 123°14'612.7
2017-Oct-20 19:00N 49°07' W 123°23'816.1
2017-Oct-20 18:30N 49°10' W 123°35'816.3
2017-Oct-20 18:00N 49°12' W 123°46'510.1
2017-Oct-20 17:30N 49°09' W 123°52'1 1.1
2017-Oct-20 16:59N 49°09' W 123°52'0 0.0
2017-Oct-20 16:30N 49°09' W 123°52'0 0.0
2017-Oct-20 16:00N 49°09' W 123°52'0 0.0
2017-Oct-20 15:30N 49°09' W 123°52'0 0.0
2017-Oct-20 15:00N 49°09' W 123°52'0 0.0
2017-Oct-20 14:00N 49°09' W 123°52'0 0.0
2017-Oct-20 13:30N 49°09' W 123°52'0 0.0
2017-Oct-20 13:00N 49°09' W 123°52'0 0.0
2017-Oct-20 12:30N 49°09' W 123°52'0 0.0
2017-Oct-20 12:00N 49°09' W 123°52'0 0.0
2017-Oct-20 11:30N 49°09' W 123°52'0 0.0
2017-Oct-20 11:00N 49°09' W 123°52'1 2.1
2017-Oct-20 10:30N 49°10' W 123°53'611.8
2017-Oct-20 10:00N 49°13' W 123°45'816.5
2017-Oct-20 09:30N 49°12' W 123°33'816.4
2017-Oct-20 09:00N 49°07' W 123°23'713.9
2017-Oct-20 08:30N 49°07' W 123°12'612.9
2017-Oct-20 08:00N 49°09' W 123°02'0 0.3
2017-Oct-20 07:30N 49°09' W 123°02'0 0.0
2017-Oct-20 07:00N 49°09' W 123°02'0 0.0
2017-Oct-20 06:30N 49°09' W 123°02'1 2.4
2017-Oct-20 06:00N 49°08' W 123°04'510.7
2017-Oct-20 05:30N 49°07' W 123°12'510.7
2017-Oct-20 05:00N 49°05' W 123°19'815.4
2017-Oct-20 04:30N 48°58' W 123°18'612.4
2017-Oct-20 04:00N 48°52' W 123°21'714.2
2017-Oct-20 03:30N 48°45' W 123°21'4 1.6
2017-Oct-20 00:54N 48°41' W 123°24'411.2
2017-Oct-20 00:30N 48°45' W 123°21'713.3
2017-Oct-20 00:00N 48°52' W 123°19'713.6
2017-Oct-19 23:30N 48°58' W 123°18'815.1
2017-Oct-19 23:00N 49°06' W 123°19'714.5
2017-Oct-19 22:30N 49°06' W 123°08'4 8.5
2017-Oct-19 22:00N 49°09' W 123°02'0 0.0
2017-Oct-19 21:30N 49°09' W 123°02'0 0.0
2017-Oct-19 21:00N 49°09' W 123°02'0 0.0
2017-Oct-19 20:30N 49°09' W 123°02'2 4.5
2017-Oct-19 20:00N 49°07' W 123°05'611.9
2017-Oct-19 19:30N 49°08' W 123°14'612.2
2017-Oct-19 19:01N 49°07' W 123°23'815.9
2017-Oct-19 18:30N 49°10' W 123°35'815.8
2017-Oct-19 18:01N 49°12' W 123°46'510.4
2017-Oct-19 17:30N 49°09' W 123°52'0 1.0
2017-Oct-19 17:01N 49°09' W 123°52'0 0.0
2017-Oct-19 16:30N 49°09' W 123°52'0 0.0
2017-Oct-19 15:59N 49°09' W 123°52'0 0.0
2017-Oct-19 15:31N 49°09' W 123°52'0 0.0
2017-Oct-19 15:01N 49°09' W 123°52'0 0.0
2017-Oct-19 14:31N 49°09' W 123°52'0 0.0
2017-Oct-19 14:01N 49°09' W 123°52'0 0.0
2017-Oct-19 13:30N 49°09' W 123°52'0 0.0
2017-Oct-19 13:01N 49°09' W 123°52'0 0.0
2017-Oct-19 12:30N 49°09' W 123°52'0 0.0
2017-Oct-19 12:01N 49°09' W 123°52'0 0.0
2017-Oct-19 11:28N 49°09' W 123°52'0 0.0
2017-Oct-19 11:00N 49°09' W 123°52'3 6.5
2017-Oct-19 10:30N 49°12' W 123°53'815.3
2017-Oct-19 10:00N 49°14' W 123°42'815.9
2017-Oct-19 09:30N 49°10' W 123°32'817.1
2017-Oct-19 09:00N 49°06' W 123°20'714.4
2017-Oct-19 08:30N 49°07' W 123°09'5 9.9
2017-Oct-19 08:00N 49°09' W 123°02'0 0.0
2017-Oct-19 07:30N 49°09' W 123°02'0 0.0
2017-Oct-19 07:00N 49°09' W 123°02'0 0.0
2017-Oct-19 06:30N 49°09' W 123°02'0 0.8
2017-Oct-19 06:00N 49°08' W 123°03'510.5
2017-Oct-19 05:30N 49°07' W 123°10'510.6
2017-Oct-19 05:00N 49°06' W 123°18'713.5
2017-Oct-19 04:30N 48°59' W 123°18'815.1
2017-Oct-19 04:01N 48°52' W 123°18'611.5
2017-Oct-19 03:31N 48°46' W 123°20'5 2.1
2017-Oct-19 00:58N 48°41' W 123°24'510.9
2017-Oct-19 00:30N 48°46' W 123°21'713.5
2017-Oct-19 00:00N 48°52' W 123°18'713.5
2017-Oct-18 23:30N 48°59' W 123°19'714.0
2017-Oct-18 23:00N 49°06' W 123°18'713.5
2017-Oct-18 22:30N 49°06' W 123°08'4 8.5
2017-Oct-18 22:00N 49°09' W 123°02'0 0.0
2017-Oct-18 21:30N 49°09' W 123°02'0 0.0
2017-Oct-18 21:01N 49°09' W 123°02'0 0.0
2017-Oct-18 20:31N 49°09' W 123°02'4 8.4
2017-Oct-18 20:00N 49°06' W 123°08'5 9.8
2017-Oct-18 19:30N 49°08' W 123°15'612.1
2017-Oct-18 19:01N 49°08' W 123°24'814.5
2017-Oct-18 18:29N 49°10' W 123°35'714.7
2017-Oct-18 18:00N 49°12' W 123°45'510.5
2017-Oct-18 17:30N 49°10' W 123°53'1 2.1
2017-Oct-18 17:00N 49°09' W 123°52'0 0.0
2017-Oct-18 16:30N 49°09' W 123°52'0 0.0
2017-Oct-18 16:00N 49°09' W 123°52'0 0.0
2017-Oct-18 15:30N 49°09' W 123°52'3 6.1
2017-Oct-18 15:00N 49°12' W 123°54'1 0.7
2017-Oct-18 14:00N 49°11' W 123°53'0 0.4
2017-Oct-18 13:30N 49°11' W 123°54'2 3.8
2017-Oct-18 13:00N 49°13' W 123°54'3 7.0
2017-Oct-18 12:30N 49°10' W 123°53'1 1.8
2017-Oct-18 12:00N 49°09' W 123°52'0 0.0
2017-Oct-18 11:27N 49°09' W 123°52'0 0.7
2017-Oct-18 10:59N 49°09' W 123°52'4 9.0
2017-Oct-18 10:30N 49°13' W 123°50'815.9
2017-Oct-18 10:00N 49°11' W 123°38'816.2
2017-Oct-18 09:30N 49°08' W 123°27'714.0
2017-Oct-18 09:00N 49°07' W 123°16'510.6
2017-Oct-18 08:30N 49°07' W 123°08'5 9.1
2017-Oct-18 08:00N 49°09' W 123°02'0 0.0
2017-Oct-18 07:30N 49°09' W 123°02'0 0.0
2017-Oct-18 07:00N 49°09' W 123°02'0 0.0
2017-Oct-18 06:30N 49°09' W 123°02'1 2.6
2017-Oct-18 06:00N 49°08' W 123°04'510.3
2017-Oct-18 05:29N 49°07' W 123°12'510.7
2017-Oct-18 05:01N 49°06' W 123°19'815.3
2017-Oct-18 04:30N 48°58' W 123°18'713.1
2017-Oct-18 04:00N 48°52' W 123°20'612.1
2017-Oct-18 03:30N 48°46' W 123°21'5 1.8
2017-Oct-18 00:52N 48°41' W 123°24'512.6
2017-Oct-18 00:30N 48°46' W 123°21'713.5
2017-Oct-18 00:00N 48°52' W 123°19'816.3
2017-Oct-17 23:30N 49°00' W 123°19'713.7
2017-Oct-17 23:00N 49°07' W 123°16'612.3
2017-Oct-17 22:30N 49°07' W 123°07'4 7.3
2017-Oct-17 21:59N 49°09' W 123°02'0 0.0
2017-Oct-17 21:30N 49°09' W 123°02'0 0.0
2017-Oct-17 21:00N 49°09' W 123°02'0 0.0
2017-Oct-17 20:30N 49°09' W 123°02'0 0.2
2017-Oct-17 20:00N 49°09' W 123°02'611.4
2017-Oct-17 19:30N 49°07' W 123°11'612.2
2017-Oct-17 19:00N 49°06' W 123°20'816.6
2017-Oct-17 18:30N 49°09' W 123°32'816.7
2017-Oct-17 18:00N 49°12' W 123°44'612.0
2017-Oct-17 17:30N 49°10' W 123°53'1 2.9
2017-Oct-17 17:00N 49°09' W 123°52'0 0.0
2017-Oct-17 16:30N 49°09' W 123°52'0 0.0
2017-Oct-17 16:00N 49°09' W 123°52'0 0.0
2017-Oct-17 15:30N 49°09' W 123°52'0 0.0
2017-Oct-17 15:00N 49°09' W 123°52'0 0.0
2017-Oct-17 14:30N 49°09' W 123°52'0 0.0
2017-Oct-17 14:00N 49°09' W 123°52'0 0.0
2017-Oct-17 13:30N 49°09' W 123°52'0 0.0
2017-Oct-17 13:00N 49°09' W 123°52'0 0.0
2017-Oct-17 12:30N 49°09' W 123°52'0 0.0
2017-Oct-17 12:00N 49°09' W 123°52'0 0.0
2017-Oct-17 11:30N 49°09' W 123°52'0 0.0
2017-Oct-17 11:00N 49°09' W 123°52'2 3.6
2017-Oct-17 10:30N 49°10' W 123°53'713.4
2017-Oct-17 10:00N 49°14' W 123°44'816.3
2017-Oct-17 09:30N 49°11' W 123°33'816.9
2017-Oct-17 09:00N 49°07' W 123°21'713.8
2017-Oct-17 08:30N 49°07' W 123°11'611.6
2017-Oct-17 08:00N 49°09' W 123°02'0 0.0
2017-Oct-17 07:30N 49°09' W 123°02'0 0.0
2017-Oct-17 07:00N 49°09' W 123°02'0 0.0
2017-Oct-17 06:30N 49°09' W 123°02'1 2.1
2017-Oct-17 06:00N 49°08' W 123°03'510.8
2017-Oct-17 05:30N 49°07' W 123°12'510.9
2017-Oct-17 05:01N 49°05' W 123°19'815.3
2017-Oct-17 04:30N 48°58' W 123°17'713.4
2017-Oct-17 04:01N 48°52' W 123°20'510.9
2017-Oct-17 03:31N 48°46' W 123°21'5 2.0
2017-Oct-17 00:49N 48°41' W 123°24'411.0
2017-Oct-17 00:30N 48°44' W 123°21'815.2
2017-Oct-16 23:59N 48°52' W 123°20'714.3
2017-Oct-16 23:30N 48°59' W 123°19'815.1
2017-Oct-16 23:00N 49°06' W 123°19'713.4
2017-Oct-16 22:30N 49°07' W 123°08'5 6.9
2017-Oct-16 21:51N 49°09' W 123°02'0 0.0
2017-Oct-16 21:27N 49°09' W 123°02'0 0.0
2017-Oct-16 20:57N 49°09' W 123°02'0 0.0
2017-Oct-16 20:30N 49°09' W 123°02'3 5.7
2017-Oct-16 20:00N 49°07' W 123°06'713.8
2017-Oct-16 19:30N 49°07' W 123°16'713.2
2017-Oct-16 18:59N 49°08' W 123°26'815.6
2017-Oct-16 18:30N 49°10' W 123°37'715.3
2017-Oct-16 18:01N 49°13' W 123°48'5 4.2
2017-Oct-16 16:45N 49°09' W 123°52'0 0.0
2017-Oct-16 16:30N 49°09' W 123°52'0 0.0
2017-Oct-16 15:57N 49°09' W 123°52'0 0.0
2017-Oct-16 15:21N 49°09' W 123°52'0 0.0
2017-Oct-16 15:00N 49°09' W 123°52'0 0.0
2017-Oct-16 14:27N 49°09' W 123°52'0 0.0
2017-Oct-16 13:24N 49°09' W 123°52'0 0.0
2017-Oct-16 12:57N 49°09' W 123°52'0 0.0
2017-Oct-16 12:27N 49°09' W 123°52'0 0.0
2017-Oct-16 09:51N 49°09' W 123°52'0 0.0
2017-Oct-16 08:33N 49°09' W 123°52'0 1.4
2017-Oct-16 08:31N 49°09' W 123°52'4 8.9
2017-Oct-16 08:00N 49°13' W 123°50'713.8
2017-Oct-16 07:30N 49°12' W 123°40'713.9
2017-Oct-16 07:00N 49°10' W 123°30'714.1
2017-Oct-16 06:30N 49°06' W 123°20'713.3
2017-Oct-16 06:00N 49°07' W 123°10'510.4
2017-Oct-16 05:30N 49°09' W 123°03'0 0.6
2017-Oct-16 05:00N 49°09' W 123°02'0 0.0
2017-Oct-16 04:30N 49°09' W 123°02'0 0.0
2017-Oct-16 03:57N 49°09' W 123°02'0 0.0
2017-Oct-16 03:30N 49°09' W 123°02'0 0.0
2017-Oct-16 03:00N 49°09' W 123°02'0 0.0
2017-Oct-16 02:27N 49°09' W 123°02'0 0.0
2017-Oct-16 01:57N 49°09' W 123°02'0 0.0
2017-Oct-16 01:30N 49°09' W 123°02'0 0.0
2017-Oct-16 00:57N 49°09' W 123°02'0 0.0
2017-Oct-16 00:30N 49°09' W 123°02'0 0.0
2017-Oct-15 23:54N 49°09' W 123°02'0 0.0
2017-Oct-15 23:30N 49°09' W 123°02'0 0.0
2017-Oct-15 23:00N 49°09' W 123°02'0 0.0
2017-Oct-15 22:30N 49°09' W 123°02'0 0.0
2017-Oct-15 21:57N 49°09' W 123°02'0 0.0
2017-Oct-15 21:30N 49°09' W 123°02'0 0.0
2017-Oct-15 20:57N 49°09' W 123°02'0 0.0
2017-Oct-15 20:21N 49°09' W 123°02'0 0.0
2017-Oct-15 20:00N 49°09' W 123°02'0 0.0
2017-Oct-15 19:09N 49°09' W 123°02'0 0.0
2017-Oct-15 18:39N 49°09' W 123°02'0 0.0
2017-Oct-15 18:30N 49°09' W 123°02'0 0.0
2017-Oct-15 17:57N 49°09' W 123°02'0 0.0
2017-Oct-15 17:27N 49°09' W 123°02'0 0.0
2017-Oct-15 17:00N 49°09' W 123°02'0 0.0
2017-Oct-15 16:30N 49°09' W 123°02'0 0.0
2017-Oct-15 15:57N 49°09' W 123°02'0 0.0
2017-Oct-15 15:30N 49°09' W 123°02'0 0.0
2017-Oct-15 15:00N 49°09' W 123°02'0 0.0
2017-Oct-15 14:00N 49°09' W 123°02'0 0.0
2017-Oct-15 13:30N 49°09' W 123°02'0 0.0
2017-Oct-15 13:00N 49°09' W 123°02'0 0.0
2017-Oct-15 12:30N 49°09' W 123°02'0 0.0
2017-Oct-15 11:57N 49°09' W 123°02'0 0.0
2017-Oct-15 11:27N 49°09' W 123°02'0 0.0
2017-Oct-15 10:57N 49°09' W 123°02'0 0.0
2017-Oct-15 10:27N 49°09' W 123°02'0 0.0
2017-Oct-15 10:00N 49°09' W 123°02'0 0.0
2017-Oct-15 09:27N 49°09' W 123°02'0 0.0
2017-Oct-15 08:57N 49°09' W 123°02'0 0.0
2017-Oct-15 08:30N 49°09' W 123°02'0 0.0
2017-Oct-15 07:57N 49°09' W 123°02'0 0.0
2017-Oct-15 07:30N 49°09' W 123°02'0 0.0
2017-Oct-15 06:51N 49°09' W 123°02'0 0.0
2017-Oct-15 06:27N 49°09' W 123°02'0 0.0
2017-Oct-15 06:00N 49°09' W 123°02'0 0.0
2017-Oct-15 05:27N 49°09' W 123°02'0 0.0
2017-Oct-15 05:00N 49°09' W 123°02'0 0.0
2017-Oct-15 04:30N 49°09' W 123°02'0 0.0
2017-Oct-15 04:00N 49°09' W 123°02'0 0.0
2017-Oct-15 03:30N 49°09' W 123°02'0 0.0
2017-Oct-15 03:00N 49°09' W 123°02'0 0.0
2017-Oct-15 02:30N 49°09' W 123°02'0 0.0
2017-Oct-15 01:57N 49°09' W 123°02'0 0.0
2017-Oct-15 01:30N 49°09' W 123°02'0 0.0
2017-Oct-15 01:00N 49°09' W 123°02'0 0.0
2017-Oct-15 00:27N 49°09' W 123°02'0 0.0
2017-Oct-14 23:57N 49°09' W 123°02'0 0.0
2017-Oct-14 23:30N 49°09' W 123°02'0 0.0
2017-Oct-14 23:00N 49°09' W 123°02'0 0.0
2017-Oct-14 22:30N 49°09' W 123°02'0 0.0
2017-Oct-14 22:00N 49°09' W 123°02'0 0.0
2017-Oct-14 21:30N 49°09' W 123°02'0 0.0
2017-Oct-14 20:45N 49°09' W 123°02'0 0.0
2017-Oct-14 20:30N 49°09' W 123°02'2 3.4
2017-Oct-14 20:00N 49°08' W 123°04'713.5
2017-Oct-14 19:30N 49°08' W 123°15'714.0
2017-Oct-14 19:00N 49°08' W 123°25'815.9
2017-Oct-14 18:30N 49°11' W 123°37'815.9
2017-Oct-14 18:00N 49°13' W 123°48'5 9.5
2017-Oct-14 17:28N 49°09' W 123°52'0 0.5
2017-Oct-14 17:00N 49°09' W 123°52'0 0.0
2017-Oct-14 16:30N 49°09' W 123°52'0 0.0
2017-Oct-14 16:00N 49°09' W 123°52'0 0.0
2017-Oct-14 15:30N 49°09' W 123°52'0 0.0
2017-Oct-14 15:00N 49°09' W 123°52'0 0.0
2017-Oct-14 14:30N 49°09' W 123°52'0 0.0
2017-Oct-14 14:00N 49°09' W 123°52'0 0.0
2017-Oct-14 13:30N 49°09' W 123°52'0 0.0
2017-Oct-14 13:00N 49°09' W 123°52'0 0.0
2017-Oct-14 12:30N 49°09' W 123°52'0 0.0
2017-Oct-14 12:00N 49°09' W 123°52'0 0.0
2017-Oct-14 11:30N 49°09' W 123°52'0 0.0
2017-Oct-14 11:00N 49°09' W 123°52'3 5.3
2017-Oct-14 10:30N 49°11' W 123°53'612.5
2017-Oct-14 10:00N 49°12' W 123°44'815.9
2017-Oct-14 09:29N 49°10' W 123°32'816.3
2017-Oct-14 09:01N 49°07' W 123°21'713.7
2017-Oct-14 08:30N 49°07' W 123°10'611.2
2017-Oct-14 08:00N 49°09' W 123°02'0 0.0
2017-Oct-14 07:27N 49°09' W 123°02'0 0.0
2017-Oct-14 07:00N 49°09' W 123°02'0 0.0
2017-Oct-14 06:27N 49°09' W 123°02'1 1.4
2017-Oct-14 06:00N 49°08' W 123°03'4 7.3
2017-Oct-14 05:30N 49°06' W 123°08'611.9
2017-Oct-14 05:00N 49°07' W 123°17'612.5
2017-Oct-14 04:31N 49°01' W 123°18'816.0
2017-Oct-14 04:01N 48°53' W 123°18'612.0
2017-Oct-14 03:30N 48°47' W 123°20'611.9
2017-Oct-14 03:00N 48°41' W 123°24'0 0.2
2017-Oct-14 02:23N 48°41' W 123°24'0 0.0
2017-Oct-14 02:00N 48°41' W 123°24'1 1.1
2017-Oct-14 00:41N 48°42' W 123°22'316.0
2017-Oct-14 00:30N 48°44' W 123°21'714.7
2017-Oct-14 00:00N 48°52' W 123°19'1015.7
2017-Oct-13 23:22N 49°02' W 123°19'514.6
2017-Oct-13 23:00N 49°07' W 123°17'713.8
2017-Oct-13 22:30N 49°07' W 123°07'3 5.4
2017-Oct-13 21:52N 49°09' W 123°02'0 0.0
2017-Oct-13 21:28N 49°09' W 123°02'0 0.0
2017-Oct-13 20:58N 49°09' W 123°02'0 0.0
2017-Oct-13 20:28N 49°09' W 123°02'0 0.0
2017-Oct-13 19:59N 49°09' W 123°02'510.3
2017-Oct-13 19:30N 49°06' W 123°09'714.4
2017-Oct-13 19:00N 49°06' W 123°20'815.7
2017-Oct-13 18:29N 49°09' W 123°31'816.3
2017-Oct-13 18:00N 49°12' W 123°43'713.7
2017-Oct-13 17:30N 49°11' W 123°53'3 5.3
2017-Oct-13 17:00N 49°09' W 123°52'0 0.0
2017-Oct-13 16:30N 49°09' W 123°52'0 0.0
2017-Oct-13 16:00N 49°09' W 123°52'0 0.0
2017-Oct-13 15:30N 49°09' W 123°52'0 0.0
2017-Oct-13 15:00N 49°09' W 123°52'0 0.0
2017-Oct-13 14:30N 49°09' W 123°52'0 0.0
2017-Oct-13 14:00N 49°09' W 123°52'0 0.0
2017-Oct-13 13:30N 49°09' W 123°52'0 0.0
2017-Oct-13 13:00N 49°09' W 123°52'0 0.0
2017-Oct-13 12:30N 49°09' W 123°52'0 0.0
2017-Oct-13 12:00N 49°09' W 123°52'0 0.0
2017-Oct-13 11:31N 49°09' W 123°52'1 1.2
2017-Oct-13 11:00N 49°09' W 123°52'510.8
2017-Oct-13 10:31N 49°13' W 123°46'815.3
2017-Oct-13 10:00N 49°10' W 123°35'714.9
2017-Oct-13 09:31N 49°08' W 123°25'713.7
2017-Oct-13 09:00N 49°08' W 123°14'713.7
2017-Oct-13 08:30N 49°08' W 123°04'1 2.3
2017-Oct-13 08:00N 49°09' W 123°02'0 0.0
2017-Oct-13 07:30N 49°09' W 123°02'0 0.0
2017-Oct-13 07:00N 49°09' W 123°02'0 0.0
2017-Oct-13 06:30N 49°09' W 123°02'1 1.0
2017-Oct-13 06:00N 49°08' W 123°03'5 9.6
2017-Oct-13 05:30N 49°07' W 123°10'612.7
2017-Oct-13 05:00N 49°06' W 123°19'714.4
2017-Oct-13 04:30N 48°59' W 123°18'714.1
2017-Oct-13 04:00N 48°52' W 123°20'613.0
2017-Oct-13 03:30N 48°45' W 123°21'5 1.7
2017-Oct-13 00:49N 48°41' W 123°24'3 9.4
2017-Oct-13 00:30N 48°43' W 123°21'816.5
2017-Oct-13 00:00N 48°51' W 123°21'713.8
2017-Oct-12 23:30N 48°58' W 123°18'816.0
2017-Oct-12 23:00N 49°06' W 123°19'714.1
2017-Oct-12 22:30N 49°06' W 123°08'4 8.5
2017-Oct-12 22:00N 49°09' W 123°02'0 0.0
2017-Oct-12 21:25N 49°09' W 123°02'0 0.0
2017-Oct-12 20:58N 49°09' W 123°02'0 0.0
2017-Oct-12 20:28N 49°09' W 123°02'0 0.0
2017-Oct-12 19:59N 49°09' W 123°02'5 9.9
2017-Oct-12 19:30N 49°06' W 123°09'713.9
2017-Oct-12 19:00N 49°06' W 123°19'815.4
2017-Oct-12 18:29N 49°09' W 123°30'816.1
2017-Oct-12 18:00N 49°11' W 123°42'714.7
2017-Oct-12 17:30N 49°12' W 123°53'3 6.4
2017-Oct-12 17:00N 49°09' W 123°52'0 0.0
2017-Oct-12 16:30N 49°09' W 123°52'0 0.0
2017-Oct-12 16:00N 49°09' W 123°52'0 0.0
2017-Oct-12 15:30N 49°09' W 123°52'0 0.0
2017-Oct-12 14:57N 49°09' W 123°52'0 0.0
2017-Oct-12 14:30N 49°09' W 123°52'0 0.0
2017-Oct-12 14:00N 49°09' W 123°52'0 0.0
2017-Oct-12 13:30N 49°09' W 123°52'  

Dump ship's entire track history